Impacts TAF Board
For situational awareness. Not to be used for flight planning purposes.
IDs:

KDHN - Dothan Rgnl, AL, US

Issued at 2345 UTC 05 Dec 2020
Updated at 0153 UTC 06 Dec 2020
Potential Impact None Slight Moderate High
Time0053Z 06/02Z 06/03Z 06/04Z 06/05Z 06/06Z 06/07Z 06/08Z 06/09Z 06/10Z 06/11Z 06/12Z 06/13Z 06/14Z>>
Type OBS PRVL PRVL PRVL PRVL PRVL PRVL PRVL PRVL PRVL PRVL PRVL PRVL PRVL
VIS 10 >6 >6 >6 >6 >6 >6 >6 >6 >6 >6 >6 >6 >6
CIG -- 200 200 200 200 200 200 200 200 200 200 200 200 70
Cover CLR BKN BKN BKN BKN BKN BKN BKN BKN BKN BKN BKN BKN OVC
FltCat VFR VFR VFR VFR VFR VFR VFR VFR VFR VFR VFR VFR VFR VFR
WX -- -- -- -- -- -- -- -- -- -- -- -- -- --
WDir VRB 330 330 330 330 330 330 330 330 330 330 330 330 250
WSpd 0 4 4 4 4 4 4 4 4 4 4 4 4 4
WGst -- -- -- -- -- -- -- -- -- -- -- -- -- --
Raw TAF
KDHN 052345Z 0600/0624 33004KT P6SM SCT100 BKN200
  FM061400 25004KT P6SM BKN070 OVC100
  PROB30 0621/0624 6SM -RA OVC060


Raw METAR
KDHN 060053Z 00000KT 10SM CLR 10/06 A3013 RMK AO2 SLP202 T01000061
KDHN 052353Z 31004KT 10SM CLR 12/05 A3012 RMK AO2 SLP200 T01170050 10172 20111 52002
KDHN 052253Z 33004KT 10SM CLR 12/05 A3011 RMK AO2 SLP196 T01220050

METAR Board
Radar Display
Forecast Discussion
For situational awareness. Not to be used for flight planning purposes.